Sovereign — 9HUE9 — position and weather

sailwx.info

Track history (hours):
 
Tides and Currents Weather Stations Pressure Air Temp Water Temp Dewpoint Dewpoint Depression Visibility Wind Speed Wind Dir Waves Ship Positions

Sovereign

Last reported at 2018-Jun-19 23:55 UTC. Time now 2018-Jun-20 00:06 UTC.
Position N 40°41' E 012°37'.

Length 269 m; draft 7.8 m.

Type: Passenger vessel. MMSI: 249539000.

Date/timePositionNaut miles runAvg speedWind from/ knotsBaromVisibWave heightAir tempDewpointWater temp
2018-Jun-19 23:55N 40°41' E 012°37'18915.2
2018-Jun-19 11:32N 41°19' E 008°32'115.9
2018-Jun-19 11:30N 41°19' E 008°31'28215.3
2018-Jun-18 17:03N 41°16' E 002°17'115.9
2018-Jun-18 17:00N 41°16' E 002°16'511.0
2018-Jun-18 16:30N 41°20' E 002°10'2 3.5
2018-Jun-18 15:58N 41°22' E 002°11'0 0.0
2018-Jun-18 15:16N 41°22' E 002°11'0 0.0
2018-Jun-18 14:58N 41°22' E 002°11'0 0.0
2018-Jun-18 14:28N 41°22' E 002°11'0 0.0
2018-Jun-18 13:58N 41°22' E 002°11'0 0.0
2018-Jun-18 13:28N 41°22' E 002°11'0 0.0
2018-Jun-18 12:58N 41°22' E 002°11'0 0.0
2018-Jun-18 12:28N 41°22' E 002°11'0 0.0
2018-Jun-18 11:58N 41°22' E 002°11'0 0.0
2018-Jun-18 11:25N 41°22' E 002°11'0 0.0
2018-Jun-18 10:58N 41°22' E 002°11'0 0.0
2018-Jun-18 10:28N 41°22' E 002°11'0 0.0
2018-Jun-18 09:58N 41°22' E 002°11'0 0.0
2018-Jun-18 09:28N 41°22' E 002°11'0 0.0
2018-Jun-18 08:55N 41°22' E 002°11'0 0.0
2018-Jun-18 08:28N 41°22' E 002°11'0 0.0
2018-Jun-18 07:58N 41°22' E 002°11'0 0.0
2018-Jun-18 07:28N 41°22' E 002°11'0 0.0
2018-Jun-18 06:58N 41°22' E 002°11'0 0.0
2018-Jun-18 06:28N 41°22' E 002°11'0 0.0
2018-Jun-18 05:58N 41°22' E 002°11'0 0.4
2018-Jun-18 05:30N 41°22' E 002°11'3 5.5
2018-Jun-18 05:00N 41°19' E 002°10'4 8.0
2018-Jun-18 04:30N 41°16' E 002°14'712.9
2018-Jun-18 04:00N 41°16' E 002°23'713.4
2018-Jun-18 03:30N 41°16' E 002°32'13112.1
2018-Jun-17 16:41N 43°12' E 003°56'316.0
2018-Jun-17 16:30N 43°14' E 003°54'816.0
2018-Jun-17 16:00N 43°21' E 003°48'5 9.3
2018-Jun-17 15:30N 43°24' E 003°43'0 0.1
2018-Jun-17 13:50N 43°24' E 003°43'0 0.0
2018-Jun-17 13:20N 43°24' E 003°43'0 0.0
2018-Jun-17 12:56N 43°24' E 003°43'0 0.0
2018-Jun-17 12:26N 43°24' E 003°43'0 0.0
2018-Jun-17 11:38N 43°24' E 003°43'0 0.0
2018-Jun-17 11:08N 43°24' E 003°43'0 0.0
2018-Jun-17 10:56N 43°24' E 003°43'0 0.0
2018-Jun-17 10:26N 43°24' E 003°43'0 0.0
2018-Jun-17 09:14N 43°24' E 003°43'0 0.0
2018-Jun-17 08:56N 43°24' E 003°43'0 0.0
2018-Jun-17 07:50N 43°24' E 003°43'0 0.0
2018-Jun-17 05:44N 43°24' E 003°43'0 0.0
2018-Jun-17 05:15N 43°24' E 003°43'0 0.8
2018-Jun-17 05:00N 43°24' E 003°43'3 6.5
2018-Jun-17 04:30N 43°23' E 003°47'713.4
2018-Jun-17 04:00N 43°18' E 003°53'611.3
2018-Jun-17 03:31N 43°14' E 003°59'510.8
2018-Jun-17 03:01N 43°11' E 004°05'3412.7
2018-Jun-17 00:21N 43°01' E 004°50'3614.5
2018-Jun-16 21:53N 42°51' E 005°36'3815.4
2018-Jun-16 19:24N 42°53' E 006°29'615.7
2018-Jun-16 19:00N 42°54' E 006°37'714.9
2018-Jun-16 18:30N 42°55' E 006°47'815.5
2018-Jun-16 18:00N 43°01' E 006°54'815.4
2018-Jun-16 17:30N 43°07' E 007°01'815.4
2018-Jun-16 17:00N 43°13' E 007°08'815.7
2018-Jun-16 16:30N 43°19' E 007°15'815.4
2018-Jun-16 16:00N 43°26' E 007°17'815.8
2018-Jun-16 15:30N 43°34' E 007°18'713.0
2018-Jun-16 15:00N 43°41' E 007°19'1 0.2
2018-Jun-16 12:26N 43°41' E 007°19'0 0.0
2018-Jun-16 11:56N 43°41' E 007°19'0 0.0
2018-Jun-16 11:26N 43°41' E 007°19'0 0.0
2018-Jun-16 10:50N 43°41' E 007°19'0 0.0
2018-Jun-16 05:30N 43°41' E 007°19'2 4.1
2018-Jun-16 05:00N 43°40' E 007°20'510.3
2018-Jun-16 04:30N 43°39' E 007°27'510.2
2018-Jun-16 04:00N 43°39' E 007°34'510.0
2018-Jun-16 03:30N 43°38' E 007°41'612.8
2018-Jun-16 03:00N 43°38' E 007°50'713.3
2018-Jun-16 02:30N 43°38' E 007°59'713.0
2018-Jun-16 02:00N 43°37' E 008°08'612.8
2018-Jun-16 01:30N 43°37' E 008°17'612.9
2018-Jun-16 01:00N 43°36' E 008°26'612.9
2018-Jun-16 00:30N 43°36' E 008°35'612.9
2018-Jun-16 00:00N 43°36' E 008°44'613.0
2018-Jun-15 23:30N 43°35' E 008°52'612.9
2018-Jun-15 23:00N 43°35' E 009°01'612.8
2018-Jun-15 22:30N 43°34' E 009°10'612.7
2018-Jun-15 22:00N 43°34' E 009°19'612.5
2018-Jun-15 21:30N 43°34' E 009°28'612.8
2018-Jun-15 21:00N 43°33' E 009°36'612.6
2018-Jun-15 20:30N 43°33' E 009°45'612.2
2018-Jun-15 20:00N 43°32' E 009°53'611.9
2018-Jun-15 19:30N 43°31' E 010°01'611.5
2018-Jun-15 19:00N 43°31' E 010°09'611.2
2018-Jun-15 18:30N 43°32' E 010°17'1 2.6
2018-Jun-15 18:00N 43°33' E 010°18'0 0.0
2018-Jun-15 17:30N 43°33' E 010°18'0 0.0
2018-Jun-15 17:00N 43°33' E 010°18'0 0.0
2018-Jun-15 16:30N 43°33' E 010°18'0 0.0
2018-Jun-15 16:00N 43°33' E 010°18'0 0.0
2018-Jun-15 15:30N 43°33' E 010°18'0 0.0
2018-Jun-15 15:00N 43°33' E 010°18'0 0.0
2018-Jun-15 14:30N 43°33' E 010°18'0 0.0
2018-Jun-15 14:00N 43°33' E 010°18'0 0.0
2018-Jun-15 13:30N 43°33' E 010°18'0 0.0
2018-Jun-15 12:57N 43°33' E 010°18'0 0.0
2018-Jun-15 12:30N 43°33' E 010°18'0 0.0
2018-Jun-15 11:57N 43°33' E 010°18'0 0.0
2018-Jun-15 11:30N 43°33' E 010°18'0 0.0
2018-Jun-15 11:00N 43°33' E 010°18'0 0.0
2018-Jun-15 10:30N 43°33' E 010°18'0 0.0
2018-Jun-15 10:00N 43°33' E 010°18'0 0.0
2018-Jun-15 09:30N 43°33' E 010°18'0 0.0
2018-Jun-15 09:00N 43°33' E 010°18'0 0.0
2018-Jun-15 08:30N 43°33' E 010°18'0 0.0
2018-Jun-15 08:00N 43°33' E 010°18'0 0.0
2018-Jun-15 07:30N 43°33' E 010°18'0 0.0
2018-Jun-15 07:00N 43°33' E 010°18'0 0.0
2018-Jun-15 06:24N 43°33' E 010°18'0 0.0
2018-Jun-15 06:00N 43°33' E 010°18'0 0.0
2018-Jun-15 05:30N 43°33' E 010°18'2 3.8
2018-Jun-15 05:00N 43°32' E 010°16'5 9.9
2018-Jun-15 04:30N 43°28' E 010°12'612.7
2018-Jun-15 04:00N 43°21' E 010°11'713.1
2018-Jun-15 03:30N 43°15' E 010°09'713.2
2018-Jun-15 03:00N 43°09' E 010°07'713.0
2018-Jun-15 02:30N 43°02' E 010°05'713.1
2018-Jun-15 02:00N 42°56' E 010°02'612.5
2018-Jun-15 01:30N 42°50' E 010°02'612.1
2018-Jun-15 00:59N 42°43' E 010°03'612.6
2018-Jun-15 00:28N 42°39' E 010°09'612.6
2018-Jun-15 00:00N 42°34' E 010°14'613.0
2018-Jun-14 23:30N 42°29' E 010°20'713.3
2018-Jun-14 23:00N 42°24' E 010°26'713.5
2018-Jun-14 22:30N 42°19' E 010°32'713.1
2018-Jun-14 21:59N 42°14' E 010°38'165 6.2
2018-Jun-13 19:31N 40°40' E 013°38'015.0
2018-Jun-13 19:30N 40°39' E 013°38'914.9
2018-Jun-13 18:53N 40°38' E 013°50'615.0
2018-Jun-13 18:29N 40°38' E 013°58'714.5
2018-Jun-13 18:00N 40°41' E 014°06'815.3
2018-Jun-13 17:30N 40°46' E 014°14'5 9.3
2018-Jun-13 17:00N 40°50' E 014°16'0 0.2
2018-Jun-13 16:28N 40°50' E 014°16'0 0.0
2018-Jun-13 15:58N 40°50' E 014°16'0 0.0
2018-Jun-13 15:31N 40°50' E 014°16'0 0.0
2018-Jun-13 15:01N 40°50' E 014°16'0 0.0
2018-Jun-13 14:28N 40°50' E 014°16'0 0.0
2018-Jun-13 13:58N 40°50' E 014°16'0 0.0
2018-Jun-13 13:28N 40°50' E 014°16'0 0.0
2018-Jun-13 13:01N 40°50' E 014°16'0 0.0
2018-Jun-13 12:31N 40°50' E 014°16'0 0.0
2018-Jun-13 11:58N 40°50' E 014°16'0 0.0
2018-Jun-13 11:28N 40°50' E 014°16'0 0.0
2018-Jun-13 10:58N 40°50' E 014°16'0 0.0
2018-Jun-13 10:31N 40°50' E 014°16'0 0.0
2018-Jun-13 10:01N 40°50' E 014°16'0 0.0
2018-Jun-13 09:28N 40°50' E 014°16'0 0.0
2018-Jun-13 09:01N 40°50' E 014°16'0 0.0
2018-Jun-13 08:31N 40°50' E 014°16'0 0.0
2018-Jun-13 08:01N 40°50' E 014°16'0 0.0
2018-Jun-13 07:31N 40°50' E 014°16'0 0.0
2018-Jun-13 06:58N 40°50' E 014°16'0 0.0
2018-Jun-13 06:30N 40°50' E 014°16'0 0.7
2018-Jun-13 06:00N 40°50' E 014°16'5 9.5
2018-Jun-13 05:30N 40°46' E 014°14'612.6
2018-Jun-13 05:00N 40°42' E 014°07'713.4
2018-Jun-13 04:30N 40°37' E 014°01'713.2
2018-Jun-13 04:00N 40°33' E 013°54'713.3
2018-Jun-13 03:30N 40°30' E 013°46'713.4
2018-Jun-13 03:00N 40°30' E 013°38'713.7
2018-Jun-13 02:30N 40°32' E 013°29'51015.2
2018-Jun-11 16:54N 41°16' E 002°16'512.4
2018-Jun-11 16:30N 41°18' E 002°10'3 6.5
2018-Jun-11 16:00N 41°22' E 002°11'0 0.0
2018-Jun-11 15:30N 41°22' E 002°11'0 0.0
2018-Jun-11 15:00N 41°22' E 002°11'0 0.0
2018-Jun-11 14:27N 41°22' E 002°11'0 0.0
2018-Jun-11 14:00N 41°22' E 002°11'0 0.0
2018-Jun-11 13:30N 41°22' E 002°11'0 0.0
2018-Jun-11 13:00N 41°22' E 002°11'0 0.0
2018-Jun-11 12:30N 41°22' E 002°11'0 0.0
2018-Jun-11 12:00N 41°22' E 002°11'0 0.0
2018-Jun-11 11:30N 41°22' E 002°11'0 0.0
2018-Jun-11 11:00N 41°22' E 002°11'0 0.0
2018-Jun-11 10:30N 41°22' E 002°11'0 0.0
2018-Jun-11 10:00N 41°22' E 002°11'0 0.0
2018-Jun-11 09:30N 41°22' E 002°11'0 0.0
2018-Jun-11 09:00N 41°22' E 002°11'0 0.0
2018-Jun-11 08:30N 41°22' E 002°11'0 0.0
2018-Jun-11 08:00N 41°22' E 002°11'0 0.0
2018-Jun-11 07:30N 41°22' E 002°11'0 0.0
2018-Jun-11 07:00N 41°22' E 002°11'0 0.0
2018-Jun-11 06:30N 41°22' E 002°11'0 0.6
2018-Jun-11 06:00N 41°21' E 002°11'1 2.0
2018-Jun-11 05:30N 41°20' E 002°10'3 6.7
2018-Jun-11 05:01N 41°17' E 002°11'3 5.7
2018-Jun-11 04:31N 41°16' E 002°15'5 9.6
2018-Jun-11 04:00N 41°16' E 002°21'612.2
2018-Jun-11 03:30N 41°16' E 002°29'10412.5
2018-Jun-10 19:09N 42°42' E 003°48'213.1
2018-Jun-10 18:58N 42°45' E 003°49'3212.5
2018-Jun-10 16:27N 43°16' E 003°52'612.4
2018-Jun-10 16:00N 43°21' E 003°47'4 8.7
2018-Jun-10 15:31N 43°24' E 003°43'0 0.1
2018-Jun-10 11:10N 43°24' E 003°43'0 0.0
2018-Jun-10 10:52N 43°24' E 003°43'0 0.0
2018-Jun-10 10:28N 43°24' E 003°43'0 0.0
2018-Jun-10 09:58N 43°24' E 003°43'0 0.0
2018-Jun-10 09:28N 43°24' E 003°43'0 0.0
2018-Jun-10 08:58N 43°24' E 003°43'0 0.0
2018-Jun-10 08:13N 43°24' E 003°43'0 0.0
2018-Jun-10 07:58N 43°24' E 003°43'0 0.0
2018-Jun-10 07:28N 43°24' E 003°43'0 0.0
2018-Jun-10 06:58N 43°24' E 003°43'0 0.0
2018-Jun-10 06:28N 43°24' E 003°43'0 0.0
2018-Jun-10 05:52N 43°24' E 003°43'0 0.0
2018-Jun-10 05:28N 43°24' E 003°43'0 0.3
2018-Jun-10 05:00N 43°24' E 003°43'2 3.9
2018-Jun-10 04:30N 43°24' E 003°46'812.8
2018-Jun-10 03:54N 43°17' E 003°52'512.5
2018-Jun-10 03:31N 43°13' E 003°56'712.8
2018-Jun-10 02:56N 43°10' E 004°05'1613.4
2018-Jun-10 01:47N 43°06' E 004°25'412.8
2018-Jun-10 01:26N 43°05' E 004°31'614.0
2018-Jun-10 01:00N 43°04' E 004°39'816.0
2018-Jun-10 00:30N 43°02' E 004°50'815.8
2018-Jun-10 00:00N 43°00' E 005°00'  
Track history (hours):
 
Tides and Currents Weather Stations Pressure Air Temp Water Temp Dewpoint Dewpoint Depression Visibility Wind Speed Wind Dir Waves Ship Positions

Sovereign

Last reported at 2018-Jun-19 23:55 UTC. Time now 2018-Jun-20 00:06 UTC.
Position N 40°41' E 012°37'.

Length 269 m; draft 7.8 m.

Type: Passenger vessel. MMSI: 249539000.

Date/timePositionNaut miles runAvg speedWind from/ knotsBaromVisibWave heightAir tempDewpointWater temp
2018-Jun-19 23:55N 40°41' E 012°37'18915.2
2018-Jun-19 11:32N 41°19' E 008°32'115.9
2018-Jun-19 11:30N 41°19' E 008°31'28215.3
2018-Jun-18 17:03N 41°16' E 002°17'115.9
2018-Jun-18 17:00N 41°16' E 002°16'511.0
2018-Jun-18 16:30N 41°20' E 002°10'2 3.5
2018-Jun-18 15:58N 41°22' E 002°11'0 0.0
2018-Jun-18 15:16N 41°22' E 002°11'0 0.0
2018-Jun-18 14:58N 41°22' E 002°11'0 0.0
2018-Jun-18 14:28N 41°22' E 002°11'0 0.0
2018-Jun-18 13:58N 41°22' E 002°11'0 0.0
2018-Jun-18 13:28N 41°22' E 002°11'0 0.0
2018-Jun-18 12:58N 41°22' E 002°11'0 0.0
2018-Jun-18 12:28N 41°22' E 002°11'0 0.0
2018-Jun-18 11:58N 41°22' E 002°11'0 0.0
2018-Jun-18 11:25N 41°22' E 002°11'0 0.0
2018-Jun-18 10:58N 41°22' E 002°11'0 0.0
2018-Jun-18 10:28N 41°22' E 002°11'0 0.0
2018-Jun-18 09:58N 41°22' E 002°11'0 0.0
2018-Jun-18 09:28N 41°22' E 002°11'0 0.0
2018-Jun-18 08:55N 41°22' E 002°11'0 0.0
2018-Jun-18 08:28N 41°22' E 002°11'0 0.0
2018-Jun-18 07:58N 41°22' E 002°11'0 0.0
2018-Jun-18 07:28N 41°22' E 002°11'0 0.0
2018-Jun-18 06:58N 41°22' E 002°11'0 0.0
2018-Jun-18 06:28N 41°22' E 002°11'0 0.0
2018-Jun-18 05:58N 41°22' E 002°11'0 0.4
2018-Jun-18 05:30N 41°22' E 002°11'3 5.5
2018-Jun-18 05:00N 41°19' E 002°10'4 8.0
2018-Jun-18 04:30N 41°16' E 002°14'712.9
2018-Jun-18 04:00N 41°16' E 002°23'713.4
2018-Jun-18 03:30N 41°16' E 002°32'13112.1
2018-Jun-17 16:41N 43°12' E 003°56'316.0
2018-Jun-17 16:30N 43°14' E 003°54'816.0
2018-Jun-17 16:00N 43°21' E 003°48'5 9.3
2018-Jun-17 15:30N 43°24' E 003°43'0 0.1
2018-Jun-17 13:50N 43°24' E 003°43'0 0.0
2018-Jun-17 13:20N 43°24' E 003°43'0 0.0
2018-Jun-17 12:56N 43°24' E 003°43'0 0.0
2018-Jun-17 12:26N 43°24' E 003°43'0 0.0
2018-Jun-17 11:38N 43°24' E 003°43'0 0.0
2018-Jun-17 11:08N 43°24' E 003°43'0 0.0
2018-Jun-17 10:56N 43°24' E 003°43'0 0.0
2018-Jun-17 10:26N 43°24' E 003°43'0 0.0
2018-Jun-17 09:14N 43°24' E 003°43'0 0.0
2018-Jun-17 08:56N 43°24' E 003°43'0 0.0
2018-Jun-17 07:50N 43°24' E 003°43'0 0.0
2018-Jun-17 05:44N 43°24' E 003°43'0 0.0
2018-Jun-17 05:15N 43°24' E 003°43'0 0.8
2018-Jun-17 05:00N 43°24' E 003°43'3 6.5
2018-Jun-17 04:30N 43°23' E 003°47'713.4
2018-Jun-17 04:00N 43°18' E 003°53'611.3
2018-Jun-17 03:31N 43°14' E 003°59'510.8
2018-Jun-17 03:01N 43°11' E 004°05'3412.7
2018-Jun-17 00:21N 43°01' E 004°50'3614.5
2018-Jun-16 21:53N 42°51' E 005°36'3815.4
2018-Jun-16 19:24N 42°53' E 006°29'615.7
2018-Jun-16 19:00N 42°54' E 006°37'714.9
2018-Jun-16 18:30N 42°55' E 006°47'815.5
2018-Jun-16 18:00N 43°01' E 006°54'815.4
2018-Jun-16 17:30N 43°07' E 007°01'815.4
2018-Jun-16 17:00N 43°13' E 007°08'815.7
2018-Jun-16 16:30N 43°19' E 007°15'815.4
2018-Jun-16 16:00N 43°26' E 007°17'815.8
2018-Jun-16 15:30N 43°34' E 007°18'713.0
2018-Jun-16 15:00N 43°41' E 007°19'1 0.2
2018-Jun-16 12:26N 43°41' E 007°19'0 0.0
2018-Jun-16 11:56N 43°41' E 007°19'0 0.0
2018-Jun-16 11:26N 43°41' E 007°19'0 0.0
2018-Jun-16 10:50N 43°41' E 007°19'0 0.0
2018-Jun-16 05:30N 43°41' E 007°19'2 4.1
2018-Jun-16 05:00N 43°40' E 007°20'510.3
2018-Jun-16 04:30N 43°39' E 007°27'510.2
2018-Jun-16 04:00N 43°39' E 007°34'510.0
2018-Jun-16 03:30N 43°38' E 007°41'612.8
2018-Jun-16 03:00N 43°38' E 007°50'713.3
2018-Jun-16 02:30N 43°38' E 007°59'713.0
2018-Jun-16 02:00N 43°37' E 008°08'612.8
2018-Jun-16 01:30N 43°37' E 008°17'612.9
2018-Jun-16 01:00N 43°36' E 008°26'612.9
2018-Jun-16 00:30N 43°36' E 008°35'612.9
2018-Jun-16 00:00N 43°36' E 008°44'613.0
2018-Jun-15 23:30N 43°35' E 008°52'612.9
2018-Jun-15 23:00N 43°35' E 009°01'612.8
2018-Jun-15 22:30N 43°34' E 009°10'612.7
2018-Jun-15 22:00N 43°34' E 009°19'612.5
2018-Jun-15 21:30N 43°34' E 009°28'612.8
2018-Jun-15 21:00N 43°33' E 009°36'612.6
2018-Jun-15 20:30N 43°33' E 009°45'612.2
2018-Jun-15 20:00N 43°32' E 009°53'611.9
2018-Jun-15 19:30N 43°31' E 010°01'611.5
2018-Jun-15 19:00N 43°31' E 010°09'611.2
2018-Jun-15 18:30N 43°32' E 010°17'1 2.6
2018-Jun-15 18:00N 43°33' E 010°18'0 0.0
2018-Jun-15 17:30N 43°33' E 010°18'0 0.0
2018-Jun-15 17:00N 43°33' E 010°18'0 0.0
2018-Jun-15 16:30N 43°33' E 010°18'0 0.0
2018-Jun-15 16:00N 43°33' E 010°18'0 0.0
2018-Jun-15 15:30N 43°33' E 010°18'0 0.0
2018-Jun-15 15:00N 43°33' E 010°18'0 0.0
2018-Jun-15 14:30N 43°33' E 010°18'0 0.0
2018-Jun-15 14:00N 43°33' E 010°18'0 0.0
2018-Jun-15 13:30N 43°33' E 010°18'0 0.0
2018-Jun-15 12:57N 43°33' E 010°18'0 0.0
2018-Jun-15 12:30N 43°33' E 010°18'0 0.0
2018-Jun-15 11:57N 43°33' E 010°18'0 0.0
2018-Jun-15 11:30N 43°33' E 010°18'0 0.0
2018-Jun-15 11:00N 43°33' E 010°18'0 0.0
2018-Jun-15 10:30N 43°33' E 010°18'0 0.0
2018-Jun-15 10:00N 43°33' E 010°18'0 0.0
2018-Jun-15 09:30N 43°33' E 010°18'0 0.0
2018-Jun-15 09:00N 43°33' E 010°18'0 0.0
2018-Jun-15 08:30N 43°33' E 010°18'0 0.0
2018-Jun-15 08:00N 43°33' E 010°18'0 0.0
2018-Jun-15 07:30N 43°33' E 010°18'0 0.0
2018-Jun-15 07:00N 43°33' E 010°18'0 0.0
2018-Jun-15 06:24N 43°33' E 010°18'0 0.0
2018-Jun-15 06:00N 43°33' E 010°18'0 0.0
2018-Jun-15 05:30N 43°33' E 010°18'2 3.8
2018-Jun-15 05:00N 43°32' E 010°16'5 9.9
2018-Jun-15 04:30N 43°28' E 010°12'612.7
2018-Jun-15 04:00N 43°21' E 010°11'713.1
2018-Jun-15 03:30N 43°15' E 010°09'713.2
2018-Jun-15 03:00N 43°09' E 010°07'713.0
2018-Jun-15 02:30N 43°02' E 010°05'713.1
2018-Jun-15 02:00N 42°56' E 010°02'612.5
2018-Jun-15 01:30N 42°50' E 010°02'612.1
2018-Jun-15 00:59N 42°43' E 010°03'612.6
2018-Jun-15 00:28N 42°39' E 010°09'612.6
2018-Jun-15 00:00N 42°34' E 010°14'613.0
2018-Jun-14 23:30N 42°29' E 010°20'713.3
2018-Jun-14 23:00N 42°24' E 010°26'713.5
2018-Jun-14 22:30N 42°19' E 010°32'713.1
2018-Jun-14 21:59N 42°14' E 010°38'165 6.2
2018-Jun-13 19:31N 40°40' E 013°38'015.0
2018-Jun-13 19:30N 40°39' E 013°38'914.9
2018-Jun-13 18:53N 40°38' E 013°50'615.0
2018-Jun-13 18:29N 40°38' E 013°58'714.5
2018-Jun-13 18:00N 40°41' E 014°06'815.3
2018-Jun-13 17:30N 40°46' E 014°14'5 9.3
2018-Jun-13 17:00N 40°50' E 014°16'0 0.2
2018-Jun-13 16:28N 40°50' E 014°16'0 0.0
2018-Jun-13 15:58N 40°50' E 014°16'0 0.0
2018-Jun-13 15:31N 40°50' E 014°16'0 0.0
2018-Jun-13 15:01N 40°50' E 014°16'0 0.0
2018-Jun-13 14:28N 40°50' E 014°16'0 0.0
2018-Jun-13 13:58N 40°50' E 014°16'0 0.0
2018-Jun-13 13:28N 40°50' E 014°16'0 0.0
2018-Jun-13 13:01N 40°50' E 014°16'0 0.0
2018-Jun-13 12:31N 40°50' E 014°16'0 0.0
2018-Jun-13 11:58N 40°50' E 014°16'0 0.0
2018-Jun-13 11:28N 40°50' E 014°16'0 0.0
2018-Jun-13 10:58N 40°50' E 014°16'0 0.0
2018-Jun-13 10:31N 40°50' E 014°16'0 0.0
2018-Jun-13 10:01N 40°50' E 014°16'0 0.0
2018-Jun-13 09:28N 40°50' E 014°16'0 0.0
2018-Jun-13 09:01N 40°50' E 014°16'0 0.0
2018-Jun-13 08:31N 40°50' E 014°16'0 0.0
2018-Jun-13 08:01N 40°50' E 014°16'0 0.0
2018-Jun-13 07:31N 40°50' E 014°16'0 0.0
2018-Jun-13 06:58N 40°50' E 014°16'0 0.0
2018-Jun-13 06:30N 40°50' E 014°16'0 0.7
2018-Jun-13 06:00N 40°50' E 014°16'5 9.5
2018-Jun-13 05:30N 40°46' E 014°14'612.6
2018-Jun-13 05:00N 40°42' E 014°07'713.4
2018-Jun-13 04:30N 40°37' E 014°01'713.2
2018-Jun-13 04:00N 40°33' E 013°54'713.3
2018-Jun-13 03:30N 40°30' E 013°46'713.4
2018-Jun-13 03:00N 40°30' E 013°38'713.7
2018-Jun-13 02:30N 40°32' E 013°29'51015.2
2018-Jun-11 16:54N 41°16' E 002°16'512.4
2018-Jun-11 16:30N 41°18' E 002°10'3 6.5
2018-Jun-11 16:00N 41°22' E 002°11'0 0.0
2018-Jun-11 15:30N 41°22' E 002°11'0 0.0
2018-Jun-11 15:00N 41°22' E 002°11'0 0.0
2018-Jun-11 14:27N 41°22' E 002°11'0 0.0
2018-Jun-11 14:00N 41°22' E 002°11'0 0.0
2018-Jun-11 13:30N 41°22' E 002°11'0 0.0
2018-Jun-11 13:00N 41°22' E 002°11'0 0.0
2018-Jun-11 12:30N 41°22' E 002°11'0 0.0
2018-Jun-11 12:00N 41°22' E 002°11'0 0.0
2018-Jun-11 11:30N 41°22' E 002°11'0 0.0
2018-Jun-11 11:00N 41°22' E 002°11'0 0.0
2018-Jun-11 10:30N 41°22' E 002°11'0 0.0
2018-Jun-11 10:00N 41°22' E 002°11'0 0.0
2018-Jun-11 09:30N 41°22' E 002°11'0 0.0
2018-Jun-11 09:00N 41°22' E 002°11'0 0.0
2018-Jun-11 08:30N 41°22' E 002°11'0 0.0
2018-Jun-11 08:00N 41°22' E 002°11'0 0.0
2018-Jun-11 07:30N 41°22' E 002°11'0 0.0
2018-Jun-11 07:00N 41°22' E 002°11'0 0.0
2018-Jun-11 06:30N 41°22' E 002°11'0 0.6
2018-Jun-11 06:00N 41°21' E 002°11'1 2.0
2018-Jun-11 05:30N 41°20' E 002°10'3 6.7
2018-Jun-11 05:01N 41°17' E 002°11'3 5.7
2018-Jun-11 04:31N 41°16' E 002°15'5 9.6
2018-Jun-11 04:00N 41°16' E 002°21'612.2
2018-Jun-11 03:30N 41°16' E 002°29'10412.5
2018-Jun-10 19:09N 42°42' E 003°48'213.1
2018-Jun-10 18:58N 42°45' E 003°49'3212.5
2018-Jun-10 16:27N 43°16' E 003°52'612.4
2018-Jun-10 16:00N 43°21' E 003°47'4 8.7
2018-Jun-10 15:31N 43°24' E 003°43'0 0.1
2018-Jun-10 11:10N 43°24' E 003°43'0 0.0
2018-Jun-10 10:52N 43°24' E 003°43'0 0.0
2018-Jun-10 10:28N 43°24' E 003°43'0 0.0
2018-Jun-10 09:58N 43°24' E 003°43'0 0.0
2018-Jun-10 09:28N 43°24' E 003°43'0 0.0
2018-Jun-10 08:58N 43°24' E 003°43'0 0.0
2018-Jun-10 08:13N 43°24' E 003°43'0 0.0
2018-Jun-10 07:58N 43°24' E 003°43'0 0.0
2018-Jun-10 07:28N 43°24' E 003°43'0 0.0
2018-Jun-10 06:58N 43°24' E 003°43'0 0.0
2018-Jun-10 06:28N 43°24' E 003°43'0 0.0
2018-Jun-10 05:52N 43°24' E 003°43'0 0.0
2018-Jun-10 05:28N 43°24' E 003°43'0 0.3
2018-Jun-10 05:00N 43°24' E 003°43'2 3.9
2018-Jun-10 04:30N 43°24' E 003°46'812.8
2018-Jun-10 03:54N 43°17' E 003°52'512.5
2018-Jun-10 03:31N 43°13' E 003°56'712.8
2018-Jun-10 02:56N 43°10' E 004°05'1613.4
2018-Jun-10 01:47N 43°06' E 004°25'412.8
2018-Jun-10 01:26N 43°05' E 004°31'614.0
2018-Jun-10 01:00N 43°04' E 004°39'816.0
2018-Jun-10 00:30N 43°02' E 004°50'815.8
2018-Jun-10 00:00N 43°00' E 005°00'  

Dump ship's entire track history